sensor_id;sensor_type;location;lat;lon;timestamp;temperature;humidity
46336;DHT22;31365;48.858;8.530;2023-04-15T00:00:35;5.90;99.90
46336;DHT22;31365;48.858;8.530;2023-04-15T00:03:03;6.00;99.90
46336;DHT22;31365;48.858;8.530;2023-04-15T00:05:33;6.00;99.90
46336;DHT22;31365;48.858;8.530;2023-04-15T00:08:01;6.10;99.90
46336;DHT22;31365;48.858;8.530;2023-04-15T00:10:30;6.00;99.90
46336;DHT22;31365;48.858;8.530;2023-04-15T00:12:58;6.00;99.90
46336;DHT22;31365;48.858;8.530;2023-04-15T00:15:26;6.00;99.90
46336;DHT22;31365;48.858;8.530;2023-04-15T00:17:56;6.00;99.90
46336;DHT22;31365;48.858;8.530;2023-04-15T00:20:24;6.00;99.90
46336;DHT22;31365;48.858;8.530;2023-04-15T00:22:52;5.90;99.90
46336;DHT22;31365;48.858;8.530;2023-04-15T00:25:20;5.90;99.90
46336;DHT22;31365;48.858;8.530;2023-04-15T00:27:49;5.80;99.90
46336;DHT22;31365;48.858;8.530;2023-04-15T00:30:17;5.80;99.90
46336;DHT22;31365;48.858;8.530;2023-04-15T00:32:46;5.80;99.90
46336;DHT22;31365;48.858;8.530;2023-04-15T00:35:21;5.80;99.90
46336;DHT22;31365;48.858;8.530;2023-04-15T00:37:49;5.70;99.90
46336;DHT22;31365;48.858;8.530;2023-04-15T00:40:20;5.60;99.90
46336;DHT22;31365;48.858;8.530;2023-04-15T00:42:50;5.50;99.90
46336;DHT22;31365;48.858;8.530;2023-04-15T00:45:19;5.50;99.90
46336;DHT22;31365;48.858;8.530;2023-04-15T00:47:48;5.50;99.90
46336;DHT22;31365;48.858;8.530;2023-04-15T00:50:17;5.50;99.90
46336;DHT22;31365;48.858;8.530;2023-04-15T00:52:47;5.50;99.90
46336;DHT22;31365;48.858;8.530;2023-04-15T00:55:15;5.40;99.90
46336;DHT22;31365;48.858;8.530;2023-04-15T00:57:43;5.40;99.90
46336;DHT22;31365;48.858;8.530;2023-04-15T01:00:12;5.40;99.90
46336;DHT22;31365;48.858;8.530;2023-04-15T01:02:41;5.40;99.90
46336;DHT22;31365;48.858;8.530;2023-04-15T01:05:09;5.40;99.90
46336;DHT22;31365;48.858;8.530;2023-04-15T01:07:38;5.40;99.90
46336;DHT22;31365;48.858;8.530;2023-04-15T01:10:09;5.40;99.90
46336;DHT22;31365;48.858;8.530;2023-04-15T01:12:38;5.40;99.90
46336;DHT22;31365;48.858;8.530;2023-04-15T01:15:07;5.50;99.90
46336;DHT22;31365;48.858;8.530;2023-04-15T01:17:37;5.40;99.90
46336;DHT22;31365;48.858;8.530;2023-04-15T01:20:07;5.40;99.90
46336;DHT22;31365;48.858;8.530;2023-04-15T01:22:38;5.40;99.90
46336;DHT22;31365;48.858;8.530;2023-04-15T01:25:11;5.40;99.90
46336;DHT22;31365;48.858;8.530;2023-04-15T01:27:45;5.50;99.90
46336;DHT22;31365;48.858;8.530;2023-04-15T01:30:14;5.50;99.90
46336;DHT22;31365;48.858;8.530;2023-04-15T01:32:43;5.50;99.90
46336;DHT22;31365;48.858;8.530;2023-04-15T01:35:11;5.50;99.90
46336;DHT22;31365;48.858;8.530;2023-04-15T01:37:39;5.50;99.90
46336;DHT22;31365;48.858;8.530;2023-04-15T01:40:08;5.50;99.90
46336;DHT22;31365;48.858;8.530;2023-04-15T01:42:36;5.60;99.90
46336;DHT22;31365;48.858;8.530;2023-04-15T01:45:07;5.60;99.90
46336;DHT22;31365;48.858;8.530;2023-04-15T01:47:37;5.60;99.90
46336;DHT22;31365;48.858;8.530;2023-04-15T01:50:06;5.60;99.90
46336;DHT22;31365;48.858;8.530;2023-04-15T01:52:35;5.60;99.90
46336;DHT22;31365;48.858;8.530;2023-04-15T01:55:04;5.70;99.90
46336;DHT22;31365;48.858;8.530;2023-04-15T01:57:33;5.70;99.90
46336;DHT22;31365;48.858;8.530;2023-04-15T02:00:03;5.70;99.90
46336;DHT22;31365;48.858;8.530;2023-04-15T02:02:40;5.70;99.90
46336;DHT22;31365;48.858;8.530;2023-04-15T02:05:09;5.70;99.90
46336;DHT22;31365;48.858;8.530;2023-04-15T02:07:37;5.70;99.90
46336;DHT22;31365;48.858;8.530;2023-04-15T02:10:05;5.80;99.90
46336;DHT22;31365;48.858;8.530;2023-04-15T02:12:35;5.80;99.90
46336;DHT22;31365;48.858;8.530;2023-04-15T02:15:05;5.80;99.90
46336;DHT22;31365;48.858;8.530;2023-04-15T02:17:34;5.80;99.90
46336;DHT22;31365;48.858;8.530;2023-04-15T02:20:05;5.70;99.90
46336;DHT22;31365;48.858;8.530;2023-04-15T02:22:36;5.70;99.90
46336;DHT22;31365;48.858;8.530;2023-04-15T02:25:07;5.70;99.90
46336;DHT22;31365;48.858;8.530;2023-04-15T02:27:36;5.70;99.90
46336;DHT22;31365;48.858;8.530;2023-04-15T02:30:05;5.70;99.90
46336;DHT22;31365;48.858;8.530;2023-04-15T02:32:35;5.70;99.90
46336;DHT22;31365;48.858;8.530;2023-04-15T02:35:07;5.70;99.90
46336;DHT22;31365;48.858;8.530;2023-04-15T02:37:36;5.60;99.90
46336;DHT22;31365;48.858;8.530;2023-04-15T02:40:10;5.60;99.90
46336;DHT22;31365;48.858;8.530;2023-04-15T02:42:40;5.50;99.90
46336;DHT22;31365;48.858;8.530;2023-04-15T02:45:12;5.50;99.90
46336;DHT22;31365;48.858;8.530;2023-04-15T02:47:41;5.50;99.90
46336;DHT22;31365;48.858;8.530;2023-04-15T02:50:13;5.40;99.90
46336;DHT22;31365;48.858;8.530;2023-04-15T02:52:42;5.40;99.90
46336;DHT22;31365;48.858;8.530;2023-04-15T02:55:11;5.40;99.90
46336;DHT22;31365;48.858;8.530;2023-04-15T02:57:39;5.40;99.90
46336;DHT22;31365;48.858;8.530;2023-04-15T03:00:10;5.30;99.90
46336;DHT22;31365;48.858;8.530;2023-04-15T03:02:43;5.30;99.90
46336;DHT22;31365;48.858;8.530;2023-04-15T03:05:14;5.30;99.90
46336;DHT22;31365;48.858;8.530;2023-04-15T03:07:48;5.30;99.90
46336;DHT22;31365;48.858;8.530;2023-04-15T03:10:16;5.20;99.90
46336;DHT22;31365;48.858;8.530;2023-04-15T03:12:45;5.20;99.90
46336;DHT22;31365;48.858;8.530;2023-04-15T03:15:19;5.10;99.90
46336;DHT22;31365;48.858;8.530;2023-04-15T03:17:50;5.10;99.90
46336;DHT22;31365;48.858;8.530;2023-04-15T03:20:20;5.00;99.90
46336;DHT22;31365;48.858;8.530;2023-04-15T03:22:49;5.00;99.90
46336;DHT22;31365;48.858;8.530;2023-04-15T03:25:19;5.00;99.90
46336;DHT22;31365;48.858;8.530;2023-04-15T03:27:47;5.00;99.90
46336;DHT22;31365;48.858;8.530;2023-04-15T03:30:16;4.90;99.90
46336;DHT22;31365;48.858;8.530;2023-04-15T03:32:45;4.90;99.90
46336;DHT22;31365;48.858;8.530;2023-04-15T03:35:13;4.80;99.90
46336;DHT22;31365;48.858;8.530;2023-04-15T03:37:43;4.70;99.90
46336;DHT22;31365;48.858;8.530;2023-04-15T03:40:12;4.60;99.90
46336;DHT22;31365;48.858;8.530;2023-04-15T03:42:40;4.60;99.90
46336;DHT22;31365;48.858;8.530;2023-04-15T03:45:09;4.60;99.90
46336;DHT22;31365;48.858;8.530;2023-04-15T03:47:38;4.60;99.90
46336;DHT22;31365;48.858;8.530;2023-04-15T03:50:07;4.60;99.90
46336;DHT22;31365;48.858;8.530;2023-04-15T03:52:35;4.60;99.90
46336;DHT22;31365;48.858;8.530;2023-04-15T03:55:05;4.60;99.90
46336;DHT22;31365;48.858;8.530;2023-04-15T03:57:34;4.60;99.90
46336;DHT22;31365;48.858;8.530;2023-04-15T04:00:05;4.60;99.90
46336;DHT22;31365;48.858;8.530;2023-04-15T04:02:39;4.70;99.90
46336;DHT22;31365;48.858;8.530;2023-04-15T04:05:08;4.70;99.90
46336;DHT22;31365;48.858;8.530;2023-04-15T04:07:36;4.70;99.90
46336;DHT22;31365;48.858;8.530;2023-04-15T04:10:06;4.70;99.90
46336;DHT22;31365;48.858;8.530;2023-04-15T04:12:35;4.70;99.90
46336;DHT22;31365;48.858;8.530;2023-04-15T04:15:03;4.70;99.90
46336;DHT22;31365;48.858;8.530;2023-04-15T04:17:33;4.70;99.90
46336;DHT22;31365;48.858;8.530;2023-04-15T04:20:01;4.60;99.90
46336;DHT22;31365;48.858;8.530;2023-04-15T04:22:29;4.60;99.90
46336;DHT22;31365;48.858;8.530;2023-04-15T04:24:57;4.50;99.90
46336;DHT22;31365;48.858;8.530;2023-04-15T04:27:29;4.50;99.90
46336;DHT22;31365;48.858;8.530;2023-04-15T04:29:58;4.40;99.90
46336;DHT22;31365;48.858;8.530;2023-04-15T04:32:26;4.30;99.90
46336;DHT22;31365;48.858;8.530;2023-04-15T04:34:55;4.30;99.90
46336;DHT22;31365;48.858;8.530;2023-04-15T04:37:23;4.30;99.90
46336;DHT22;31365;48.858;8.530;2023-04-15T04:39:51;4.30;99.90
46336;DHT22;31365;48.858;8.530;2023-04-15T04:42:19;4.30;99.90
46336;DHT22;31365;48.858;8.530;2023-04-15T04:44:49;4.30;99.90
46336;DHT22;31365;48.858;8.530;2023-04-15T04:47:17;4.30;99.90
46336;DHT22;31365;48.858;8.530;2023-04-15T04:49:45;4.30;99.90
46336;DHT22;31365;48.858;8.530;2023-04-15T04:52:13;4.30;99.90
46336;DHT22;31365;48.858;8.530;2023-04-15T04:54:41;4.30;99.90
46336;DHT22;31365;48.858;8.530;2023-04-15T04:57:09;4.30;99.90
46336;DHT22;31365;48.858;8.530;2023-04-15T04:59:39;4.40;99.90
46336;DHT22;31365;48.858;8.530;2023-04-15T05:02:09;4.40;99.90
46336;DHT22;31365;48.858;8.530;2023-04-15T05:04:37;4.40;99.90
46336;DHT22;31365;48.858;8.530;2023-04-15T05:07:07;4.40;99.90
46336;DHT22;31365;48.858;8.530;2023-04-15T05:09:35;4.40;99.90
46336;DHT22;31365;48.858;8.530;2023-04-15T05:12:03;4.50;99.90
46336;DHT22;31365;48.858;8.530;2023-04-15T05:14:32;4.50;99.90
46336;DHT22;31365;48.858;8.530;2023-04-15T05:17:00;4.50;99.90
46336;DHT22;31365;48.858;8.530;2023-04-15T05:19:30;4.50;99.90
46336;DHT22;31365;48.858;8.530;2023-04-15T05:21:58;4.60;99.90
46336;DHT22;31365;48.858;8.530;2023-04-15T05:24:27;4.60;99.90
46336;DHT22;31365;48.858;8.530;2023-04-15T05:26:56;4.70;99.90
46336;DHT22;31365;48.858;8.530;2023-04-15T05:29:24;4.80;99.90
46336;DHT22;31365;48.858;8.530;2023-04-15T05:31:52;4.90;99.90
46336;DHT22;31365;48.858;8.530;2023-04-15T05:34:21;5.00;99.90
46336;DHT22;31365;48.858;8.530;2023-04-15T05:36:51;5.20;99.90
46336;DHT22;31365;48.858;8.530;2023-04-15T05:39:19;5.10;99.90
46336;DHT22;31365;48.858;8.530;2023-04-15T05:41:47;5.20;99.90
46336;DHT22;31365;48.858;8.530;2023-04-15T05:44:15;5.20;99.90
46336;DHT22;31365;48.858;8.530;2023-04-15T05:46:44;5.20;99.90
46336;DHT22;31365;48.858;8.530;2023-04-15T05:49:12;5.30;99.90
46336;DHT22;31365;48.858;8.530;2023-04-15T05:51:40;5.40;99.90
46336;DHT22;31365;48.858;8.530;2023-04-15T05:54:09;5.40;99.90
46336;DHT22;31365;48.858;8.530;2023-04-15T05:56:37;5.50;99.90
46336;DHT22;31365;48.858;8.530;2023-04-15T05:59:06;5.60;99.90
46336;DHT22;31365;48.858;8.530;2023-04-15T06:01:35;5.70;99.90
46336;DHT22;31365;48.858;8.530;2023-04-15T06:04:03;5.90;99.90
46336;DHT22;31365;48.858;8.530;2023-04-15T06:06:31;6.00;99.90
46336;DHT22;31365;48.858;8.530;2023-04-15T06:09:00;6.10;99.90
46336;DHT22;31365;48.858;8.530;2023-04-15T06:11:31;6.30;99.90
46336;DHT22;31365;48.858;8.530;2023-04-15T06:13:59;6.40;99.90
46336;DHT22;31365;48.858;8.530;2023-04-15T06:16:27;6.60;99.90
46336;DHT22;31365;48.858;8.530;2023-04-15T06:18:55;6.70;99.90
46336;DHT22;31365;48.858;8.530;2023-04-15T06:21:24;6.80;99.90
46336;DHT22;31365;48.858;8.530;2023-04-15T06:23:52;6.90;99.90
46336;DHT22;31365;48.858;8.530;2023-04-15T06:26:22;7.10;99.90
46336;DHT22;31365;48.858;8.530;2023-04-15T06:28:52;7.30;99.90
46336;DHT22;31365;48.858;8.530;2023-04-15T06:31:20;7.50;99.90
46336;DHT22;31365;48.858;8.530;2023-04-15T06:33:49;7.70;99.90
46336;DHT22;31365;48.858;8.530;2023-04-15T06:36:18;7.90;99.90
46336;DHT22;31365;48.858;8.530;2023-04-15T06:38:47;8.10;99.90
46336;DHT22;31365;48.858;8.530;2023-04-15T06:41:15;8.30;99.90
46336;DHT22;31365;48.858;8.530;2023-04-15T06:43:44;8.50;99.90
46336;DHT22;31365;48.858;8.530;2023-04-15T06:46:14;8.70;99.90
46336;DHT22;31365;48.858;8.530;2023-04-15T06:48:42;8.90;99.90
46336;DHT22;31365;48.858;8.530;2023-04-15T06:51:10;9.10;99.90
46336;DHT22;31365;48.858;8.530;2023-04-15T06:53:39;9.20;99.90
46336;DHT22;31365;48.858;8.530;2023-04-15T06:56:09;9.30;99.90
46336;DHT22;31365;48.858;8.530;2023-04-15T06:58:37;9.50;99.90
46336;DHT22;31365;48.858;8.530;2023-04-15T07:01:05;9.70;99.90
46336;DHT22;31365;48.858;8.530;2023-04-15T07:03:35;9.90;99.90
46336;DHT22;31365;48.858;8.530;2023-04-15T07:06:03;10.10;99.90
46336;DHT22;31365;48.858;8.530;2023-04-15T07:08:32;10.20;99.90
46336;DHT22;31365;48.858;8.530;2023-04-15T07:11:01;10.40;99.90
46336;DHT22;31365;48.858;8.530;2023-04-15T07:13:30;10.60;99.90
46336;DHT22;31365;48.858;8.530;2023-04-15T07:15:59;10.70;99.90
46336;DHT22;31365;48.858;8.530;2023-04-15T07:18:27;10.80;99.90
46336;DHT22;31365;48.858;8.530;2023-04-15T07:20:57;10.90;99.90
46336;DHT22;31365;48.858;8.530;2023-04-15T07:23:25;11.00;99.90
46336;DHT22;31365;48.858;8.530;2023-04-15T07:25:53;11.00;99.90
46336;DHT22;31365;48.858;8.530;2023-04-15T07:28:21;11.00;99.90
46336;DHT22;31365;48.858;8.530;2023-04-15T07:30:49;11.10;99.90
46336;DHT22;31365;48.858;8.530;2023-04-15T07:33:18;11.10;99.90
46336;DHT22;31365;48.858;8.530;2023-04-15T07:35:46;11.20;99.90
46336;DHT22;31365;48.858;8.530;2023-04-15T07:38:16;11.20;99.90
46336;DHT22;31365;48.858;8.530;2023-04-15T07:40:45;11.20;99.90
46336;DHT22;31365;48.858;8.530;2023-04-15T07:43:14;11.30;99.90
46336;DHT22;31365;48.858;8.530;2023-04-15T07:45:42;11.40;99.90
46336;DHT22;31365;48.858;8.530;2023-04-15T07:48:10;11.50;99.90
46336;DHT22;31365;48.858;8.530;2023-04-15T07:50:38;11.60;99.90
46336;DHT22;31365;48.858;8.530;2023-04-15T07:53:07;11.70;99.90
46336;DHT22;31365;48.858;8.530;2023-04-15T07:55:36;11.70;99.90
46336;DHT22;31365;48.858;8.530;2023-04-15T07:58:04;11.80;99.90
46336;DHT22;31365;48.858;8.530;2023-04-15T08:00:33;11.90;99.90
46336;DHT22;31365;48.858;8.530;2023-04-15T08:03:02;12.00;99.90
46336;DHT22;31365;48.858;8.530;2023-04-15T08:05:30;12.00;99.90
46336;DHT22;31365;48.858;8.530;2023-04-15T08:07:58;12.00;99.90
46336;DHT22;31365;48.858;8.530;2023-04-15T08:10:28;12.10;99.90
46336;DHT22;31365;48.858;8.530;2023-04-15T08:12:58;12.20;99.90
46336;DHT22;31365;48.858;8.530;2023-04-15T08:15:27;12.20;99.90
46336;DHT22;31365;48.858;8.530;2023-04-15T08:17:55;12.20;99.90
46336;DHT22;31365;48.858;8.530;2023-04-15T08:20:23;12.30;99.90
46336;DHT22;31365;48.858;8.530;2023-04-15T08:22:51;12.40;99.90
46336;DHT22;31365;48.858;8.530;2023-04-15T08:25:20;12.60;99.90
46336;DHT22;31365;48.858;8.530;2023-04-15T08:27:48;12.70;99.90
46336;DHT22;31365;48.858;8.530;2023-04-15T08:30:18;12.90;99.90
46336;DHT22;31365;48.858;8.530;2023-04-15T08:32:49;13.10;99.90
46336;DHT22;31365;48.858;8.530;2023-04-15T08:35:17;13.20;99.90
46336;DHT22;31365;48.858;8.530;2023-04-15T08:37:46;13.30;99.90
46336;DHT22;31365;48.858;8.530;2023-04-15T08:40:14;13.30;99.90
46336;DHT22;31365;48.858;8.530;2023-04-15T08:42:44;13.30;99.90
46336;DHT22;31365;48.858;8.530;2023-04-15T08:45:21;13.30;99.90
46336;DHT22;31365;48.858;8.530;2023-04-15T08:47:53;13.40;99.90
46336;DHT22;31365;48.858;8.530;2023-04-15T08:50:24;13.60;99.90
46336;DHT22;31365;48.858;8.530;2023-04-15T08:52:55;13.70;99.90
46336;DHT22;31365;48.858;8.530;2023-04-15T08:55:29;13.70;99.90
46336;DHT22;31365;48.858;8.530;2023-04-15T08:58:00;13.70;99.90
46336;DHT22;31365;48.858;8.530;2023-04-15T09:00:31;13.60;99.90
46336;DHT22;31365;48.858;8.530;2023-04-15T09:03:00;13.70;99.90
46336;DHT22;31365;48.858;8.530;2023-04-15T09:05:31;13.60;99.90
46336;DHT22;31365;48.858;8.530;2023-04-15T09:08:01;13.50;99.90
46336;DHT22;31365;48.858;8.530;2023-04-15T09:10:32;13.50;99.90
46336;DHT22;31365;48.858;8.530;2023-04-15T09:13:00;13.60;99.90
46336;DHT22;31365;48.858;8.530;2023-04-15T09:15:30;13.70;99.90
46336;DHT22;31365;48.858;8.530;2023-04-15T09:18:00;13.90;99.90
46336;DHT22;31365;48.858;8.530;2023-04-15T09:20:29;14.10;99.90
46336;DHT22;31365;48.858;8.530;2023-04-15T09:22:57;14.10;99.90
46336;DHT22;31365;48.858;8.530;2023-04-15T09:25:27;14.10;99.90
46336;DHT22;31365;48.858;8.530;2023-04-15T09:28:00;14.20;99.90
46336;DHT22;31365;48.858;8.530;2023-04-15T09:30:30;14.30;99.90
46336;DHT22;31365;48.858;8.530;2023-04-15T09:32:59;14.30;99.90
46336;DHT22;31365;48.858;8.530;2023-04-15T09:35:29;14.50;99.90
46336;DHT22;31365;48.858;8.530;2023-04-15T09:38:02;14.50;99.90
46336;DHT22;31365;48.858;8.530;2023-04-15T09:40:34;14.70;99.90
46336;DHT22;31365;48.858;8.530;2023-04-15T09:43:04;14.90;99.90
46336;DHT22;31365;48.858;8.530;2023-04-15T09:45:35;15.00;99.90
46336;DHT22;31365;48.858;8.530;2023-04-15T09:48:14;15.10;99.90
46336;DHT22;31365;48.858;8.530;2023-04-15T09:50:44;15.20;99.90
46336;DHT22;31365;48.858;8.530;2023-04-15T09:53:16;15.40;99.90
46336;DHT22;31365;48.858;8.530;2023-04-15T09:55:48;15.60;99.90
46336;DHT22;31365;48.858;8.530;2023-04-15T09:58:19;15.80;99.90
46336;DHT22;31365;48.858;8.530;2023-04-15T10:00:51;15.80;99.90
46336;DHT22;31365;48.858;8.530;2023-04-15T10:03:22;15.90;99.90
46336;DHT22;31365;48.858;8.530;2023-04-15T10:05:54;15.90;99.90
46336;DHT22;31365;48.858;8.530;2023-04-15T10:08:24;16.00;99.90
46336;DHT22;31365;48.858;8.530;2023-04-15T10:10:53;16.10;99.90
46336;DHT22;31365;48.858;8.530;2023-04-15T10:13:23;16.10;99.90
46336;DHT22;31365;48.858;8.530;2023-04-15T10:15:57;16.00;99.90
46336;DHT22;31365;48.858;8.530;2023-04-15T10:18:28;16.10;99.90
46336;DHT22;31365;48.858;8.530;2023-04-15T10:21:01;16.20;99.90
46336;DHT22;31365;48.858;8.530;2023-04-15T10:23:31;16.40;99.90
46336;DHT22;31365;48.858;8.530;2023-04-15T10:26:01;16.50;99.90
46336;DHT22;31365;48.858;8.530;2023-04-15T10:28:32;16.60;99.90
46336;DHT22;31365;48.858;8.530;2023-04-15T10:31:01;16.50;99.90
46336;DHT22;31365;48.858;8.530;2023-04-15T10:33:32;16.60;99.90
46336;DHT22;31365;48.858;8.530;2023-04-15T10:36:02;16.70;99.90
46336;DHT22;31365;48.858;8.530;2023-04-15T10:38:34;16.70;99.00
46336;DHT22;31365;48.858;8.530;2023-04-15T10:41:18;16.70;99.30
46336;DHT22;31365;48.858;8.530;2023-04-15T10:43:49;16.50;99.20
46336;DHT22;31365;48.858;8.530;2023-04-15T10:46:34;16.60;99.50
46336;DHT22;31365;48.858;8.530;2023-04-15T10:49:07;16.80;98.50
46336;DHT22;31365;48.858;8.530;2023-04-15T10:51:38;16.80;98.80
46336;DHT22;31365;48.858;8.530;2023-04-15T10:54:12;16.90;99.70
46336;DHT22;31365;48.858;8.530;2023-04-15T10:56:41;16.90;99.40
46336;DHT22;31365;48.858;8.530;2023-04-15T10:59:10;16.90;99.30
46336;DHT22;31365;48.858;8.530;2023-04-15T11:01:54;16.90;98.80
46336;DHT22;31365;48.858;8.530;2023-04-15T11:04:51;16.60;98.90
46336;DHT22;31365;48.858;8.530;2023-04-15T11:07:38;16.70;98.80
46336;DHT22;31365;48.858;8.530;2023-04-15T11:13:31;17.70;97.90
46336;DHT22;31365;48.858;8.530;2023-04-15T11:16:01;18.00;95.40
46336;DHT22;31365;48.858;8.530;2023-04-15T11:18:32;18.20;95.80
46336;DHT22;31365;48.858;8.530;2023-04-15T11:21:03;18.30;95.60
46336;DHT22;31365;48.858;8.530;2023-04-15T11:23:36;18.40;95.20
46336;DHT22;31365;48.858;8.530;2023-04-15T11:26:08;18.30;96.80
46336;DHT22;31365;48.858;8.530;2023-04-15T11:28:39;18.20;96.00
46336;DHT22;31365;48.858;8.530;2023-04-15T11:31:10;18.00;94.90
46336;DHT22;31365;48.858;8.530;2023-04-15T11:33:52;18.00;95.30
46336;DHT22;31365;48.858;8.530;2023-04-15T11:36:23;17.90;94.90
46336;DHT22;31365;48.858;8.530;2023-04-15T11:38:54;18.10;95.10
46336;DHT22;31365;48.858;8.530;2023-04-15T11:41:24;18.30;94.20
46336;DHT22;31365;48.858;8.530;2023-04-15T11:43:52;18.40;94.60
46336;DHT22;31365;48.858;8.530;2023-04-15T11:46:20;18.50;94.10
46336;DHT22;31365;48.858;8.530;2023-04-15T11:48:50;18.60;94.80
46336;DHT22;31365;48.858;8.530;2023-04-15T11:51:18;18.60;94.20
46336;DHT22;31365;48.858;8.530;2023-04-15T11:53:49;18.70;94.30
46336;DHT22;31365;48.858;8.530;2023-04-15T11:56:18;18.70;94.50
46336;DHT22;31365;48.858;8.530;2023-04-15T11:58:51;18.70;93.90
46336;DHT22;31365;48.858;8.530;2023-04-15T12:01:20;18.50;94.80
46336;DHT22;31365;48.858;8.530;2023-04-15T12:03:59;18.40;94.40
46336;DHT22;31365;48.858;8.530;2023-04-15T12:06:34;18.60;94.30
46336;DHT22;31365;48.858;8.530;2023-04-15T12:09:08;19.20;93.90
46336;DHT22;31365;48.858;8.530;2023-04-15T12:11:43;20.20;94.00
46336;DHT22;31365;48.858;8.530;2023-04-15T12:14:22;20.40;92.40
46336;DHT22;31365;48.858;8.530;2023-04-15T12:16:53;20.10;92.20
46336;DHT22;31365;48.858;8.530;2023-04-15T12:19:27;20.70;91.80
46336;DHT22;31365;48.858;8.530;2023-04-15T12:21:58;21.50;90.50
46336;DHT22;31365;48.858;8.530;2023-04-15T12:24:31;21.90;86.60
46336;DHT22;31365;48.858;8.530;2023-04-15T12:27:04;21.70;85.10
46336;DHT22;31365;48.858;8.530;2023-04-15T12:29:34;21.60;84.00
46336;DHT22;31365;48.858;8.530;2023-04-15T12:32:07;20.80;84.30
46336;DHT22;31365;48.858;8.530;2023-04-15T12:34:39;20.30;86.50
46336;DHT22;31365;48.858;8.530;2023-04-15T12:37:10;19.80;86.70
46336;DHT22;31365;48.858;8.530;2023-04-15T12:39:41;19.10;88.00
46336;DHT22;31365;48.858;8.530;2023-04-15T12:42:11;18.60;90.20
46336;DHT22;31365;48.858;8.530;2023-04-15T12:44:40;18.30;90.30
46336;DHT22;31365;48.858;8.530;2023-04-15T12:47:10;18.00;90.30
46336;DHT22;31365;48.858;8.530;2023-04-15T12:49:40;18.00;89.50
46336;DHT22;31365;48.858;8.530;2023-04-15T12:52:09;18.20;87.20
46336;DHT22;31365;48.858;8.530;2023-04-15T12:54:38;18.40;87.60
46336;DHT22;31365;48.858;8.530;2023-04-15T12:57:06;18.20;86.40
46336;DHT22;31365;48.858;8.530;2023-04-15T12:59:34;18.30;85.30
46336;DHT22;31365;48.858;8.530;2023-04-15T13:02:03;18.30;84.50
46336;DHT22;31365;48.858;8.530;2023-04-15T13:04:32;18.60;86.80
46336;DHT22;31365;48.858;8.530;2023-04-15T13:07:01;19.10;88.20
46336;DHT22;31365;48.858;8.530;2023-04-15T13:09:30;20.10;84.50
46336;DHT22;31365;48.858;8.530;2023-04-15T13:11:59;21.20;82.90
46336;DHT22;31365;48.858;8.530;2023-04-15T13:14:27;21.90;80.20
46336;DHT22;31365;48.858;8.530;2023-04-15T13:16:55;22.60;79.30
46336;DHT22;31365;48.858;8.530;2023-04-15T13:19:23;23.20;75.60
46336;DHT22;31365;48.858;8.530;2023-04-15T13:21:52;22.80;71.90
46336;DHT22;31365;48.858;8.530;2023-04-15T13:24:23;21.90;72.60
46336;DHT22;31365;48.858;8.530;2023-04-15T13:26:52;20.90;71.10
46336;DHT22;31365;48.858;8.530;2023-04-15T13:29:21;20.10;71.60
46336;DHT22;31365;48.858;8.530;2023-04-15T13:31:50;19.60;75.70
46336;DHT22;31365;48.858;8.530;2023-04-15T13:34:18;19.20;77.60
46336;DHT22;31365;48.858;8.530;2023-04-15T13:36:46;18.80;78.50
46336;DHT22;31365;48.858;8.530;2023-04-15T13:39:15;18.20;77.50
46336;DHT22;31365;48.858;8.530;2023-04-15T13:41:44;17.90;78.20
46336;DHT22;31365;48.858;8.530;2023-04-15T13:44:14;17.40;80.00
46336;DHT22;31365;48.858;8.530;2023-04-15T13:46:43;17.30;80.00
46336;DHT22;31365;48.858;8.530;2023-04-15T13:49:11;17.10;80.30
46336;DHT22;31365;48.858;8.530;2023-04-15T13:51:40;16.90;78.40
46336;DHT22;31365;48.858;8.530;2023-04-15T13:54:08;16.70;79.40
46336;DHT22;31365;48.858;8.530;2023-04-15T13:56:36;16.60;80.60
46336;DHT22;31365;48.858;8.530;2023-04-15T13:59:05;16.50;81.70
46336;DHT22;31365;48.858;8.530;2023-04-15T14:01:34;16.40;83.20
46336;DHT22;31365;48.858;8.530;2023-04-15T14:04:03;16.30;84.10
46336;DHT22;31365;48.858;8.530;2023-04-15T14:06:32;16.20;85.10
46336;DHT22;31365;48.858;8.530;2023-04-15T14:09:00;16.10;86.20
46336;DHT22;31365;48.858;8.530;2023-04-15T14:11:30;15.90;85.90
46336;DHT22;31365;48.858;8.530;2023-04-15T14:13:59;15.80;87.40
46336;DHT22;31365;48.858;8.530;2023-04-15T14:16:28;15.70;88.20
46336;DHT22;31365;48.858;8.530;2023-04-15T14:18:57;15.50;88.50
46336;DHT22;31365;48.858;8.530;2023-04-15T14:21:25;15.40;89.00
46336;DHT22;31365;48.858;8.530;2023-04-15T14:23:55;15.30;90.20
46336;DHT22;31365;48.858;8.530;2023-04-15T14:26:24;15.20;90.60
46336;DHT22;31365;48.858;8.530;2023-04-15T14:28:53;15.10;91.10
46336;DHT22;31365;48.858;8.530;2023-04-15T14:31:21;15.00;91.80
46336;DHT22;31365;48.858;8.530;2023-04-15T14:33:51;14.90;92.50
46336;DHT22;31365;48.858;8.530;2023-04-15T14:36:19;14.80;92.60
46336;DHT22;31365;48.858;8.530;2023-04-15T14:38:48;14.70;93.20
46336;DHT22;31365;48.858;8.530;2023-04-15T14:41:16;14.60;93.60
46336;DHT22;31365;48.858;8.530;2023-04-15T14:43:44;14.50;94.00
46336;DHT22;31365;48.858;8.530;2023-04-15T14:46:13;14.30;94.10
46336;DHT22;31365;48.858;8.530;2023-04-15T14:48:42;14.30;94.50
46336;DHT22;31365;48.858;8.530;2023-04-15T14:51:11;14.30;94.80
46336;DHT22;31365;48.858;8.530;2023-04-15T14:53:40;14.40;95.20
46336;DHT22;31365;48.858;8.530;2023-04-15T14:56:08;14.40;95.00
46336;DHT22;31365;48.858;8.530;2023-04-15T14:58:36;14.40;95.00
46336;DHT22;31365;48.858;8.530;2023-04-15T15:01:05;14.40;94.60
46336;DHT22;31365;48.858;8.530;2023-04-15T15:03:33;14.30;94.70
46336;DHT22;31365;48.858;8.530;2023-04-15T15:06:03;14.30;94.60
46336;DHT22;31365;48.858;8.530;2023-04-15T15:08:33;14.30;94.30
46336;DHT22;31365;48.858;8.530;2023-04-15T15:11:02;14.30;94.50
46336;DHT22;31365;48.858;8.530;2023-04-15T15:13:30;14.30;94.30
46336;DHT22;31365;48.858;8.530;2023-04-15T15:15:59;14.30;94.00
46336;DHT22;31365;48.858;8.530;2023-04-15T15:18:27;14.30;93.80
46336;DHT22;31365;48.858;8.530;2023-04-15T15:20:57;14.30;94.00
46336;DHT22;31365;48.858;8.530;2023-04-15T15:23:25;14.50;93.90
46336;DHT22;31365;48.858;8.530;2023-04-15T15:25:54;14.60;93.50
46336;DHT22;31365;48.858;8.530;2023-04-15T15:28:24;14.70;93.40
46336;DHT22;31365;48.858;8.530;2023-04-15T15:30:52;14.70;93.00
46336;DHT22;31365;48.858;8.530;2023-04-15T15:33:21;14.70;93.90
46336;DHT22;31365;48.858;8.530;2023-04-15T15:35:49;14.70;92.40
46336;DHT22;31365;48.858;8.530;2023-04-15T15:38:18;14.60;92.40
46336;DHT22;31365;48.858;8.530;2023-04-15T15:40:46;14.60;92.40
46336;DHT22;31365;48.858;8.530;2023-04-15T15:43:15;14.60;92.10
46336;DHT22;31365;48.858;8.530;2023-04-15T15:45:44;14.50;92.20
46336;DHT22;31365;48.858;8.530;2023-04-15T15:48:13;14.40;92.40
46336;DHT22;31365;48.858;8.530;2023-04-15T15:50:42;14.30;92.50
46336;DHT22;31365;48.858;8.530;2023-04-15T15:53:11;14.20;92.50
46336;DHT22;31365;48.858;8.530;2023-04-15T15:55:43;14.10;92.90